Soesterberg, Nederland

11:47 PM CET op 31 oktober 2014 (GMT +0100)
Weerstation Hees | Change Station
CLOSE
Current Station
Persoonlijk weerstation
Location: Soest, UTRECHT
Geometrische hoogte: 23 ft
Nabije weerstations

Hoogte 23 ft 52.16 °N, 5.29 °E | Updated 7 minutes ago

Clear
Helder
57.2 °F
Voelt als 57.2 °F
N
1.0
Wind Variabel Wind van zuid
Gusts 4.0 mijl/u

Vandaag
Hoog -- | Laag -- °F
--% Kans op neerslag
Gisteren
Hoog -- | Laag -- °F
Precip. -- inches
7:31 AM 5:12 PM
Eerste kwartier, 59% visible
Druk 30.06 inches
Zicht -9999.0 mijlen
Wolken
Dauwpunt 55 °F
Vochtigheid 91%
Neerslag 0.00 inches
Dikte sneeuw Niet beschikbaar.
UV Niet beschikbaar.
Pollen Niet beschikbaar.
Luchtkwaliteit Niet beschikbaar.
Flu Activity Niet beschikbaar.
METAR EHAM 312225Z 16008KT CAVOK 13/12 Q1018 NOSIG

More Conditions Fewer Conditions

Druk 30.06 inches
Zicht -9999.0 mijlen
Wolken
Dauwpunt 55 °F
Vochtigheid 91%
Neerslag 0.00 inches
Dikte sneeuw Niet beschikbaar.
UV Niet beschikbaar.
Pollen Niet beschikbaar.
Luchtkwaliteit Niet beschikbaar.
Flu Activity Niet beschikbaar.
METAR EHAM 312225Z 16008KT CAVOK 13/12 Q1018 NOSIG

More Conditions Fewer Conditions

10-Day Weather Forecast

Almanac

Astronomie

Oct. 31, 2014 Opkomst Ondergang
Werkelijke tijd
Burgerlijke schemering
Nautische schemering
Astronomische schemering
Maan
Golflengte van het zichtbare licht
Daglengte
Tomorrow will be .
, % of the Moon is Illuminated

Extremen vandaag

Country Highs Country Lows

Community

WunderPhotos

Upload Photos

1,766,770 foto’s ge-upload!

WunderBlogs® & News

Nearby

Luchtkwaliteit

  Luchtkwaliteit LK-index Verontreinigende stof
Not available.

Dikte sneeuw

Station Depth Geometrische hoogte

Aardbevingen

Stad Distance Mag. Time & Date
Minimum magnitude displayed is 2.5.

Watertemperatuur langs de kust

Plaats Temperatuur

Nabije weerstations